createdAt,value
2022-10-01T00:01:00.602Z,69.08
2022-10-01T00:03:28.319Z,69.34
2022-10-01T00:06:09.123Z,69.38
2022-10-01T00:08:37.152Z,68.46
2022-10-01T00:11:18.181Z,69.06
2022-10-01T00:13:44.869Z,68.79
2022-10-01T00:16:13.170Z,68.29
2022-10-01T00:18:42.330Z,69.06
2022-10-01T00:21:10.851Z,69.51
2022-10-01T00:23:37.634Z,69.10
2022-10-01T00:26:18.394Z,68.54
2022-10-01T00:28:46.532Z,68.69
2022-10-01T00:31:15.262Z,69.82
2022-10-01T00:33:42.541Z,69.93
2022-10-01T00:36:10.427Z,69.46
2022-10-01T00:38:37.965Z,69.85
2022-10-01T00:41:05.196Z,70.67
2022-10-01T00:43:35.094Z,71.92
2022-10-01T00:46:10.711Z,74.18
2022-10-01T00:48:52.479Z,74.97
2022-10-01T00:51:20.698Z,77.07
2022-10-01T00:53:47.174Z,77.67
2022-10-01T00:56:13.738Z,78.52
2022-10-01T00:58:40.130Z,79.51
2022-10-01T01:01:06.496Z,81.06
2022-10-01T01:03:32.885Z,81.54
2022-10-01T01:05:59.231Z,82.35
2022-10-01T01:08:25.634Z,82.79
2022-10-01T01:11:16.941Z,82.76
2022-10-01T01:14:20.879Z,82.92
2022-10-01T01:17:02.495Z,84.12
2022-10-01T01:19:43.554Z,84.52
2022-10-01T01:22:13.377Z,85.42
2022-10-01T01:24:59.099Z,85.71
2022-10-01T01:27:28.322Z,86.45
2022-10-01T01:30:04.245Z,86.21
2022-10-01T01:33:01.321Z,87.09
2022-10-01T01:35:33.637Z,86.52
2022-10-01T01:38:10.272Z,87.41
2022-10-01T01:40:40.199Z,87.08
2022-10-01T01:43:13.925Z,87.27
2022-10-01T01:45:42.119Z,87.50
2022-10-01T01:48:09.878Z,87.97
2022-10-01T01:50:43.277Z,87.96
2022-10-01T01:53:09.916Z,88.14
2022-10-01T01:55:37.080Z,88.71
2022-10-01T01:58:03.686Z,88.49
2022-10-01T02:00:30.031Z,88.56
2022-10-01T02:02:57.747Z,89.15
2022-10-01T02:05:29.017Z,88.97
2022-10-01T02:08:04.329Z,89.47
2022-10-01T02:10:46.748Z,89.11
2022-10-01T02:13:31.859Z,88.95
2022-10-01T02:16:18.734Z,89.01
2022-10-01T02:19:30.101Z,89.33
2022-10-01T02:22:03.207Z,89.62
2022-10-01T02:24:47.542Z,89.70
2022-10-01T02:27:44.454Z,89.89
2022-10-01T02:30:12.133Z,90.12
2022-10-01T02:32:42.632Z,90.53
2022-10-01T02:35:12.249Z,90.28
2022-10-01T02:37:41.326Z,90.15
2022-10-01T02:40:15.821Z,90.26
2022-10-01T02:42:48.592Z,90.26
2022-10-01T02:45:22.704Z,90.67
2022-10-01T02:47:56.142Z,90.16
2022-10-01T02:50:27.164Z,90.55
2022-10-01T02:52:59.430Z,90.51
2022-10-01T02:55:29.910Z,90.68
2022-10-01T02:57:57.326Z,90.49
2022-10-01T03:00:24.046Z,91.03
2022-10-01T03:02:50.816Z,90.84
2022-10-01T03:05:17.854Z,90.82
2022-10-01T03:07:44.370Z,90.82
2022-10-01T03:10:11.770Z,91.43
2022-10-01T03:12:40.989Z,91.32
2022-10-01T03:15:07.675Z,91.28
2022-10-01T03:17:36.004Z,91.51
2022-10-01T03:20:02.737Z,90.94
2022-10-01T03:22:29.034Z,91.23
2022-10-01T03:24:55.357Z,91.52
2022-10-01T03:27:22.757Z,91.41
2022-10-01T03:29:49.782Z,91.82
2022-10-01T03:32:16.839Z,91.58
2022-10-01T03:34:43.698Z,92.04
2022-10-01T03:37:10.729Z,92.24
2022-10-01T03:39:37.159Z,92.09
2022-10-01T03:42:05.825Z,92.43
2022-10-01T03:44:32.912Z,92.25
2022-10-01T03:46:59.367Z,92.15
2022-10-01T03:49:25.822Z,92.23
2022-10-01T03:51:52.131Z,92.80
2022-10-01T03:54:18.522Z,92.70
2022-10-01T03:56:44.890Z,92.88
2022-10-01T03:59:11.888Z,92.69
2022-10-01T04:01:39.313Z,92.68
2022-10-01T04:04:06.320Z,92.97
2022-10-01T04:06:32.800Z,93.04
2022-10-01T04:08:59.155Z,92.85
2022-10-01T04:11:25.904Z,93.36
2022-10-01T04:13:52.264Z,93.28
2022-10-01T04:16:18.652Z,93.00
2022-10-01T04:18:45.226Z,93.44
2022-10-01T04:21:12.741Z,93.00
2022-10-01T04:23:39.078Z,93.66
2022-10-01T04:26:05.584Z,93.31
2022-10-01T04:28:32.416Z,93.25
2022-10-01T04:31:17.900Z,93.23
2022-10-01T04:33:44.909Z,93.51
2022-10-01T04:36:11.757Z,93.64
2022-10-01T04:38:38.202Z,93.46
2022-10-01T04:41:04.674Z,93.70
2022-10-01T04:43:31.077Z,93.37
2022-10-01T04:45:57.437Z,93.31
2022-10-01T04:48:24.185Z,93.51
2022-10-01T04:50:50.500Z,93.73
2022-10-01T04:53:16.846Z,93.80
2022-10-01T04:55:43.673Z,93.74
2022-10-01T04:58:10.435Z,93.75
2022-10-01T05:00:36.902Z,94.00
2022-10-01T05:03:03.427Z,93.96
2022-10-01T05:05:32.843Z,93.93
2022-10-01T05:07:59.187Z,94.02
2022-10-01T05:10:26.185Z,93.93
2022-10-01T05:12:52.560Z,93.77
2022-10-01T05:15:19.319Z,94.04
2022-10-01T05:17:47.141Z,93.98
2022-10-01T05:20:18.960Z,94.11
2022-10-01T05:22:46.430Z,94.76
2022-10-01T05:25:13.610Z,94.39
2022-10-01T05:27:41.049Z,94.39
2022-10-01T05:30:12.526Z,94.75
2022-10-01T05:32:39.226Z,94.34
2022-10-01T05:35:07.681Z,94.25
2022-10-01T05:37:34.754Z,94.59
2022-10-01T05:40:01.662Z,94.58
2022-10-01T05:42:28.021Z,94.11
2022-10-01T05:44:54.331Z,94.22
2022-10-01T05:47:20.894Z,93.71
2022-10-01T05:49:47.226Z,94.10
2022-10-01T05:52:15.302Z,94.34
2022-10-01T05:54:41.729Z,94.36
2022-10-01T05:57:09.317Z,94.37
2022-10-01T05:59:35.945Z,94.14
2022-10-01T06:02:04.086Z,94.05
2022-10-01T06:04:30.685Z,94.25
2022-10-01T06:06:58.206Z,94.47
2022-10-01T06:09:24.545Z,94.07
2022-10-01T06:11:50.990Z,94.32
2022-10-01T06:14:17.755Z,93.71
2022-10-01T06:16:44.599Z,94.03
2022-10-01T06:19:11.016Z,94.23
2022-10-01T06:21:37.773Z,93.97
2022-10-01T06:24:04.343Z,93.94
2022-10-01T06:26:31.150Z,94.03
2022-10-01T06:28:57.664Z,94.10
2022-10-01T06:31:25.088Z,93.97
2022-10-01T06:33:51.486Z,93.69
2022-10-01T06:36:17.885Z,93.75
2022-10-01T06:38:44.308Z,94.26
2022-10-01T06:41:11.022Z,94.00
2022-10-01T06:43:37.425Z,93.99
2022-10-01T06:46:05.184Z,93.96
2022-10-01T06:48:32.423Z,93.87
2022-10-01T06:50:59.258Z,94.09
2022-10-01T06:53:27.990Z,93.81
2022-10-01T06:55:55.354Z,94.23
2022-10-01T06:58:26.209Z,94.14
2022-10-01T07:00:59.020Z,94.25
2022-10-01T07:03:25.797Z,94.00
2022-10-01T07:05:52.305Z,94.16
2022-10-01T07:08:19.105Z,93.91
2022-10-01T07:10:45.703Z,94.20
2022-10-01T07:13:17.486Z,94.09
2022-10-01T07:15:44.973Z,94.28
2022-10-01T07:18:12.019Z,94.07
2022-10-01T07:20:39.573Z,94.32
2022-10-01T07:23:10.170Z,94.69
2022-10-01T07:25:38.817Z,94.34
2022-10-01T07:28:07.377Z,94.38
2022-10-01T07:30:34.467Z,94.57
2022-10-01T07:33:00.855Z,94.48
2022-10-01T07:35:28.380Z,94.25
2022-10-01T07:37:55.287Z,94.34
2022-10-01T07:40:22.066Z,94.30
2022-10-01T07:42:56.114Z,94.45
2022-10-01T07:45:23.811Z,94.41
2022-10-01T07:47:58.457Z,94.39
2022-10-01T07:50:25.956Z,94.65
2022-10-01T07:52:55.282Z,94.72
2022-10-01T07:55:23.755Z,94.41
2022-10-01T07:57:55.096Z,94.20
2022-10-01T08:00:23.631Z,94.32
2022-10-01T08:02:53.497Z,94.40
2022-10-01T08:05:22.230Z,94.68
2022-10-01T08:07:49.541Z,94.52
2022-10-01T08:10:18.023Z,93.99
2022-10-01T08:12:45.196Z,94.03
2022-10-01T08:15:16.701Z,93.58
2022-10-01T08:17:44.249Z,93.55
2022-10-01T08:20:13.038Z,93.33
2022-10-01T08:22:42.153Z,93.44
2022-10-01T08:25:09.652Z,92.99
2022-10-01T08:27:36.291Z,92.34
2022-10-01T08:30:02.841Z,92.29
2022-10-01T08:32:30.078Z,91.77
2022-10-01T08:34:57.554Z,91.69
2022-10-01T08:37:28.344Z,91.71
2022-10-01T08:39:56.147Z,91.95
2022-10-01T08:42:43.512Z,92.54
2022-10-01T08:45:20.224Z,93.19
2022-10-01T08:47:59.170Z,93.41
2022-10-01T08:50:52.888Z,93.74
2022-10-01T08:53:31.781Z,94.02
2022-10-01T08:56:00.142Z,94.11
2022-10-01T08:58:34.649Z,94.21
2022-10-01T09:01:01.170Z,93.97
2022-10-01T09:03:31.061Z,93.80
2022-10-01T09:06:20.582Z,93.38
2022-10-01T09:08:57.781Z,93.50
2022-10-01T09:11:43.986Z,93.36
2022-10-01T09:14:35.758Z,93.22
2022-10-01T09:17:25.886Z,93.33
2022-10-01T09:20:23.686Z,93.01
2022-10-01T09:23:19.648Z,92.31
2022-10-01T09:25:50.314Z,92.35
2022-10-01T09:28:23.901Z,92.67
2022-10-01T09:31:08.702Z,93.11
2022-10-01T09:33:37.858Z,93.26
2022-10-01T09:36:25.218Z,93.48
2022-10-01T09:39:14.783Z,93.65
2022-10-01T09:41:41.225Z,93.24
2022-10-01T09:44:18.804Z,93.42
2022-10-01T09:46:46.634Z,93.41
2022-10-01T09:49:36.204Z,94.06
2022-10-01T09:52:15.131Z,94.07
2022-10-01T09:54:49.134Z,94.64
2022-10-01T09:57:25.206Z,95.06
2022-10-01T10:00:02.117Z,94.71
2022-10-01T10:02:36.130Z,94.97
2022-10-01T10:05:05.274Z,94.77
2022-10-01T10:07:34.615Z,94.66
2022-10-01T10:10:09.364Z,93.91
2022-10-01T10:12:36.115Z,93.58
2022-10-01T10:15:09.815Z,92.88
2022-10-01T10:17:38.019Z,92.94
2022-10-01T10:20:13.111Z,91.71
2022-10-01T10:22:39.499Z,91.73
2022-10-01T10:25:19.949Z,91.36
2022-10-01T10:27:55.377Z,89.83
2022-10-01T10:30:26.991Z,89.50
2022-10-01T10:33:03.562Z,89.04
2022-10-01T10:35:31.702Z,88.31
2022-10-01T10:37:58.800Z,88.45
2022-10-01T10:40:29.692Z,88.37
2022-10-01T10:42:58.479Z,88.88
2022-10-01T10:45:38.707Z,87.35
2022-10-01T10:48:08.125Z,84.71
2022-10-01T10:50:40.474Z,83.91
2022-10-01T10:53:20.026Z,83.72
2022-10-01T10:56:03.195Z,83.69
2022-10-01T10:58:33.343Z,83.63
2022-10-01T11:01:09.711Z,83.17
2022-10-01T11:03:38.369Z,77.96
2022-10-01T11:06:11.663Z,75.76
2022-10-01T11:08:39.525Z,73.28
2022-10-01T11:11:31.674Z,71.61
2022-10-01T11:14:23.849Z,69.29
2022-10-01T11:17:27.975Z,68.88
2022-10-01T11:20:06.891Z,67.08
2022-10-01T11:22:54.815Z,66.50
2022-10-01T11:25:44.865Z,64.92
2022-10-01T11:28:56.075Z,67.01
2022-10-01T11:31:40.320Z,66.20
2022-10-01T11:34:37.793Z,67.81
2022-10-01T11:37:24.167Z,68.13
2022-10-01T11:39:56.017Z,68.58
2022-10-01T11:42:34.664Z,68.82
2022-10-01T11:45:17.778Z,69.75
2022-10-01T11:47:52.218Z,69.66
2022-10-01T11:50:25.110Z,69.38
2022-10-01T11:53:23.908Z,69.64
2022-10-01T11:56:41.143Z,70.40
2022-10-01T11:59:36.573Z,70.06
2022-10-01T12:02:08.906Z,69.78
2022-10-01T12:04:41.878Z,70.19
2022-10-01T12:07:26.759Z,69.47
2022-10-01T12:10:21.414Z,68.51
2022-10-01T12:13:02.748Z,69.38
2022-10-01T12:15:37.751Z,69.07
2022-10-01T12:18:20.171Z,68.80
2022-10-01T12:20:50.563Z,68.96
2022-10-01T12:23:21.723Z,69.76
2022-10-01T12:26:04.419Z,69.70
2022-10-01T12:28:45.818Z,68.33
2022-10-01T12:31:47.946Z,69.87
2022-10-01T12:34:42.482Z,69.97
2022-10-01T12:37:27.931Z,70.37
2022-10-01T12:40:40.766Z,70.95
2022-10-01T12:43:25.962Z,69.66
2022-10-01T12:46:31.212Z,69.64
2022-10-01T12:49:22.292Z,69.41
2022-10-01T12:51:53.130Z,69.67
2022-10-01T12:54:30.870Z,67.93
2022-10-01T12:57:21.737Z,68.31
2022-10-01T13:00:07.891Z,66.43
2022-10-01T13:02:53.071Z,64.93
2022-10-01T13:05:50.130Z,62.59
2022-10-01T13:08:16.401Z,62.21
2022-10-01T13:10:52.046Z,61.79
2022-10-01T13:13:26.021Z,60.04
2022-10-01T13:16:02.618Z,60.72
2022-10-01T13:18:50.666Z,61.97
2022-10-01T13:21:50.006Z,62.36
2022-10-01T13:24:41.150Z,61.51
2022-10-01T13:27:18.310Z,60.32
2022-10-01T13:29:51.969Z,61.39
2022-10-01T13:32:37.226Z,61.02
2022-10-01T13:35:35.457Z,59.27
2022-10-01T13:38:29.017Z,59.46
2022-10-01T13:41:01.675Z,57.59
2022-10-01T13:43:30.485Z,58.86
2022-10-01T13:46:09.140Z,56.78
2022-10-01T13:48:44.053Z,57.33
2022-10-01T13:51:13.481Z,57.39
2022-10-01T13:53:42.875Z,57.79
2022-10-01T13:56:12.799Z,57.95
2022-10-01T13:58:40.385Z,56.85
2022-10-01T14:01:20.027Z,57.82
2022-10-01T14:06:35.272Z,58.15
2022-10-01T14:09:22.647Z,58.37
2022-10-01T14:12:22.115Z,57.53
2022-10-01T14:15:14.976Z,57.23
2022-10-01T14:17:43.661Z,56.24
2022-10-01T14:20:18.364Z,56.27
2022-10-01T14:22:51.633Z,56.19
2022-10-01T14:25:29.141Z,55.88
2022-10-01T14:28:27.729Z,55.52
2022-10-01T14:31:38.919Z,55.61
2022-10-01T14:34:20.724Z,55.15
2022-10-01T14:36:49.512Z,55.23
2022-10-01T14:39:15.890Z,55.40
2022-10-01T14:41:43.081Z,55.98
2022-10-01T14:44:24.763Z,57.27
2022-10-01T14:46:53.065Z,56.26
2022-10-01T14:49:30.633Z,56.05
2022-10-01T14:52:03.617Z,56.73
2022-10-01T14:54:56.226Z,55.78
2022-10-01T14:57:38.945Z,55.80
2022-10-01T15:00:10.933Z,56.41
2022-10-01T15:02:52.092Z,55.94
2022-10-01T15:05:26.865Z,56.31
2022-10-01T15:07:53.759Z,55.74
2022-10-01T15:10:23.822Z,56.08
2022-10-01T15:12:52.571Z,55.82
2022-10-01T15:15:33.770Z,54.58
2022-10-01T15:18:04.074Z,56.01
2022-10-01T15:20:31.004Z,56.41
2022-10-01T15:23:01.192Z,56.03
2022-10-01T15:25:30.035Z,56.18
2022-10-01T15:27:56.709Z,57.82
2022-10-01T15:30:26.403Z,59.35
2022-10-01T15:32:53.183Z,58.13
2022-10-01T15:35:22.002Z,60.80
2022-10-01T15:37:50.631Z,60.70
2022-10-01T15:40:35.259Z,63.00
2022-10-01T15:43:07.721Z,63.62
2022-10-01T15:45:35.093Z,63.63
2022-10-01T15:48:01.648Z,63.48
2022-10-01T15:50:39.238Z,63.70
2022-10-01T15:53:19.530Z,63.51
2022-10-01T15:55:49.506Z,63.30
2022-10-01T15:58:26.854Z,61.76
2022-10-01T16:01:06.738Z,61.33
2022-10-01T16:03:40.450Z,61.91
2022-10-01T16:06:18.369Z,60.91
2022-10-01T16:09:22.832Z,61.53
2022-10-01T16:11:56.407Z,62.09
2022-10-01T16:14:22.672Z,61.64
2022-10-01T16:16:50.754Z,61.78
2022-10-01T16:19:28.579Z,62.18
2022-10-01T16:22:15.654Z,61.89
2022-10-01T16:24:49.868Z,61.29
2022-10-01T16:27:26.409Z,61.93
2022-10-01T16:30:05.313Z,60.99
2022-10-01T16:32:32.171Z,60.80
2022-10-01T16:35:23.006Z,61.60
2022-10-01T16:37:51.742Z,61.48
2022-10-01T16:40:20.154Z,61.68
2022-10-01T16:42:49.318Z,60.76
2022-10-01T16:45:18.438Z,61.85
2022-10-01T16:47:45.837Z,61.99
2022-10-01T16:50:15.592Z,61.56
2022-10-01T16:52:42.302Z,62.13
2022-10-01T16:55:36.302Z,62.42
2022-10-01T16:58:03.934Z,62.81
2022-10-01T17:00:31.321Z,63.44
2022-10-01T17:02:59.608Z,63.42
2022-10-01T17:05:30.298Z,63.65
2022-10-01T17:08:05.190Z,63.86
2022-10-01T17:10:36.443Z,64.44
2022-10-01T17:13:03.588Z,64.71
2022-10-01T17:15:30.978Z,63.72
2022-10-01T17:17:58.925Z,64.14
2022-10-01T17:20:30.626Z,64.29
2022-10-01T17:22:58.401Z,65.05
2022-10-01T17:25:31.958Z,64.62
2022-10-01T17:27:59.563Z,64.34
2022-10-01T17:30:28.992Z,65.31
2022-10-01T17:32:56.806Z,64.92
2022-10-01T17:35:23.309Z,65.07
2022-10-01T17:37:49.618Z,64.34
2022-10-01T17:40:16.202Z,64.11
2022-10-01T17:42:42.622Z,63.97
2022-10-01T17:45:11.470Z,64.02
2022-10-01T17:47:42.926Z,63.77
2022-10-01T17:50:09.662Z,63.65
2022-10-01T17:52:36.010Z,63.52
2022-10-01T17:55:02.355Z,63.47
2022-10-01T17:57:28.720Z,63.01
2022-10-01T17:59:55.074Z,63.21
2022-10-01T18:02:40.878Z,62.88
2022-10-01T18:05:09.525Z,62.61
2022-10-01T18:07:39.317Z,62.92
2022-10-01T18:10:07.517Z,62.79
2022-10-01T18:12:34.493Z,63.28
2022-10-01T18:15:01.442Z,63.69
2022-10-01T18:17:28.085Z,63.69
2022-10-01T18:19:54.728Z,64.46
2022-10-01T18:22:21.399Z,64.53
2022-10-01T18:24:47.792Z,65.15
2022-10-01T18:27:14.238Z,65.20
2022-10-01T18:29:40.628Z,65.13
2022-10-01T18:32:20.531Z,66.26
2022-10-01T18:34:53.057Z,66.19
2022-10-01T18:37:26.822Z,66.56
2022-10-01T18:40:06.718Z,66.92
2022-10-01T18:42:44.833Z,67.09
2022-10-01T18:45:31.941Z,67.75
2022-10-01T18:48:14.203Z,67.89
2022-10-01T18:50:45.850Z,68.16
2022-10-01T18:53:32.221Z,68.56
2022-10-01T18:56:04.670Z,68.53
2022-10-01T18:58:52.973Z,68.88
2022-10-01T19:01:48.815Z,68.82
2022-10-01T19:04:44.518Z,68.93
2022-10-01T19:07:17.705Z,69.36
2022-10-01T19:10:09.969Z,69.59
2022-10-01T19:12:52.305Z,69.89
2022-10-01T19:15:53.918Z,69.98
2022-10-01T19:18:41.322Z,70.45
2022-10-01T19:21:26.122Z,70.73
2022-10-01T19:24:10.846Z,70.68
2022-10-01T19:27:04.318Z,71.47
2022-10-01T19:30:00.646Z,71.36
2022-10-01T19:32:36.244Z,71.71
2022-10-01T19:35:21.789Z,71.94
2022-10-01T19:37:55.146Z,72.28
2022-10-01T19:40:34.436Z,72.36
2022-10-01T19:43:17.239Z,72.96
2022-10-01T19:45:46.677Z,73.14
2022-10-01T19:48:19.963Z,73.33
2022-10-01T19:50:53.245Z,73.60
2022-10-01T19:53:37.326Z,73.43
2022-10-01T19:56:05.045Z,73.37
2022-10-01T19:58:32.554Z,73.94
2022-10-01T20:01:01.406Z,74.11
2022-10-01T20:03:39.193Z,74.17
2022-10-01T20:06:23.650Z,74.13
2022-10-01T20:09:00.373Z,74.81
2022-10-01T20:11:41.635Z,75.66
2022-10-01T20:15:11.894Z,76.69
2022-10-01T20:18:13.109Z,77.31
2022-10-01T20:20:50.778Z,77.82
2022-10-01T20:23:38.658Z,78.07
2022-10-01T20:26:23.382Z,78.60
2022-10-01T20:29:05.037Z,79.69
2022-10-01T20:31:43.773Z,80.22
2022-10-01T20:34:21.339Z,80.17
2022-10-01T20:37:08.204Z,80.53
2022-10-01T20:39:41.263Z,80.83
2022-10-01T20:42:17.336Z,81.45
2022-10-01T20:44:43.750Z,82.03
2022-10-01T20:47:27.550Z,81.96
2022-10-01T20:50:25.875Z,82.27
2022-10-01T20:53:06.827Z,82.75
2022-10-01T20:55:41.306Z,83.64
2022-10-01T20:58:14.268Z,83.61
2022-10-01T21:00:43.089Z,83.81
2022-10-01T21:03:19.309Z,83.31
2022-10-01T21:05:57.513Z,83.85
2022-10-01T21:08:23.809Z,84.50
2022-10-01T21:10:56.417Z,84.75
2022-10-01T21:13:31.957Z,85.37
2022-10-01T21:16:21.477Z,85.05
2022-10-01T21:19:10.113Z,85.63
2022-10-01T21:21:44.699Z,85.35
2022-10-01T21:24:59.236Z,85.79
2022-10-01T21:27:48.816Z,85.91
2022-10-01T21:30:17.610Z,85.73
2022-10-01T21:33:04.309Z,85.75
2022-10-01T21:35:44.072Z,85.67
2022-10-01T21:38:39.934Z,86.32
2022-10-01T21:41:29.826Z,86.59
2022-10-01T21:44:30.569Z,86.40
2022-10-01T21:47:15.036Z,86.19
2022-10-01T21:49:41.311Z,86.36
2022-10-01T21:52:49.767Z,86.06
2022-10-01T21:55:23.489Z,85.99
2022-10-01T21:58:03.641Z,85.39
2022-10-01T22:00:32.577Z,86.23
2022-10-01T22:03:10.506Z,86.25
2022-10-01T22:06:03.277Z,86.43
2022-10-01T22:08:48.413Z,86.35
2022-10-01T22:11:21.522Z,86.30
2022-10-01T22:13:53.326Z,86.60
2022-10-01T22:16:21.999Z,86.75
2022-10-01T22:19:03.342Z,86.30
2022-10-01T22:21:48.013Z,86.11
2022-10-01T22:24:48.090Z,86.83
2022-10-01T22:27:23.610Z,87.64
2022-10-01T22:30:15.610Z,88.11
2022-10-01T22:32:45.477Z,88.11
2022-10-01T22:35:26.914Z,88.15
2022-10-01T22:38:12.450Z,87.72
2022-10-01T22:40:45.469Z,88.11
2022-10-01T22:43:13.217Z,87.91
2022-10-01T22:46:02.143Z,88.17
2022-10-01T22:48:34.387Z,88.04
2022-10-01T22:51:09.766Z,88.26
2022-10-01T22:53:52.779Z,88.20
2022-10-01T22:56:28.999Z,88.13
2022-10-01T22:59:24.542Z,88.41
2022-10-01T23:02:06.020Z,88.13
2022-10-01T23:04:50.989Z,87.75
2022-10-01T23:07:45.515Z,87.95
2022-10-01T23:10:32.563Z,87.95
2022-10-01T23:13:28.603Z,87.52
2022-10-01T23:16:02.847Z,87.75
2022-10-01T23:18:40.218Z,87.95
2022-10-01T23:21:12.422Z,88.34
2022-10-01T23:23:40.726Z,88.20
2022-10-01T23:26:46.125Z,88.13
2022-10-01T23:29:18.244Z,88.04
2022-10-01T23:32:22.625Z,88.52
2022-10-01T23:35:13.818Z,88.37
2022-10-01T23:37:59.416Z,88.58
2022-10-01T23:40:30.655Z,88.98
2022-10-01T23:43:00.139Z,89.17
2022-10-01T23:45:42.244Z,89.62
2022-10-01T23:48:17.158Z,89.29
2022-10-01T23:51:06.030Z,89.27
2022-10-01T23:53:45.226Z,89.89
2022-10-01T23:56:49.868Z,89.76
2022-10-01T23:59:33.473Z,89.92
